sensor_id;sensor_type;location;lat;lon;timestamp;temperature;humidity
25024;DHT22;13033;50.936;5.334;2023-02-11T00:01:51;7.40;91.30
25024;DHT22;13033;50.936;5.334;2023-02-11T00:04:17;7.40;91.40
25024;DHT22;13033;50.936;5.334;2023-02-11T00:06:43;7.30;92.90
25024;DHT22;13033;50.936;5.334;2023-02-11T00:09:09;7.30;93.20
25024;DHT22;13033;50.936;5.334;2023-02-11T00:11:35;7.30;92.80
25024;DHT22;13033;50.936;5.334;2023-02-11T00:14:04;7.20;93.80
25024;DHT22;13033;50.936;5.334;2023-02-11T00:16:30;7.30;93.60
25024;DHT22;13033;50.936;5.334;2023-02-11T00:18:59;7.20;93.70
25024;DHT22;13033;50.936;5.334;2023-02-11T00:21:25;7.30;93.40
25024;DHT22;13033;50.936;5.334;2023-02-11T00:23:52;7.40;92.00
25024;DHT22;13033;50.936;5.334;2023-02-11T00:26:25;7.20;92.90
25024;DHT22;13033;50.936;5.334;2023-02-11T00:28:51;7.30;92.10
25024;DHT22;13033;50.936;5.334;2023-02-11T00:31:19;7.20;92.80
25024;DHT22;13033;50.936;5.334;2023-02-11T00:33:45;7.10;93.30
25024;DHT22;13033;50.936;5.334;2023-02-11T00:36:19;7.10;94.20
25024;DHT22;13033;50.936;5.334;2023-02-11T00:38:46;7.00;95.30
25024;DHT22;13033;50.936;5.334;2023-02-11T00:41:13;6.90;97.20
25024;DHT22;13033;50.936;5.334;2023-02-11T00:43:39;6.90;97.60
25024;DHT22;13033;50.936;5.334;2023-02-11T00:46:06;6.90;98.10
25024;DHT22;13033;50.936;5.334;2023-02-11T00:48:32;7.00;97.00
25024;DHT22;13033;50.936;5.334;2023-02-11T00:50:58;7.00;97.00
25024;DHT22;13033;50.936;5.334;2023-02-11T00:53:24;7.10;96.30
25024;DHT22;13033;50.936;5.334;2023-02-11T00:55:50;7.00;97.10
25024;DHT22;13033;50.936;5.334;2023-02-11T00:58:15;7.20;95.70
25024;DHT22;13033;50.936;5.334;2023-02-11T01:00:41;7.30;95.10
25024;DHT22;13033;50.936;5.334;2023-02-11T01:03:07;7.30;93.10
25024;DHT22;13033;50.936;5.334;2023-02-11T01:05:33;7.30;93.20
25024;DHT22;13033;50.936;5.334;2023-02-11T01:07:59;7.40;92.20
25024;DHT22;13033;50.936;5.334;2023-02-11T01:10:24;7.40;91.60
25024;DHT22;13033;50.936;5.334;2023-02-11T01:12:50;7.40;92.00
25024;DHT22;13033;50.936;5.334;2023-02-11T01:15:18;7.40;92.00
25024;DHT22;13033;50.936;5.334;2023-02-11T01:17:44;7.40;91.70
25024;DHT22;13033;50.936;5.334;2023-02-11T01:20:21;7.40;91.60
25024;DHT22;13033;50.936;5.334;2023-02-11T01:22:47;7.40;91.80
25024;DHT22;13033;50.936;5.334;2023-02-11T01:25:13;7.20;93.70
25024;DHT22;13033;50.936;5.334;2023-02-11T01:27:39;7.30;93.50
25024;DHT22;13033;50.936;5.334;2023-02-11T01:30:06;7.30;93.00
25024;DHT22;13033;50.936;5.334;2023-02-11T01:32:33;7.20;93.60
25024;DHT22;13033;50.936;5.334;2023-02-11T01:34:59;7.30;92.60
25024;DHT22;13033;50.936;5.334;2023-02-11T01:37:25;7.00;94.50
25024;DHT22;13033;50.936;5.334;2023-02-11T01:39:51;6.90;95.60
25024;DHT22;13033;50.936;5.334;2023-02-11T01:42:22;6.90;96.80
25024;DHT22;13033;50.936;5.334;2023-02-11T01:44:52;7.10;96.20
25024;DHT22;13033;50.936;5.334;2023-02-11T01:47:19;7.00;96.00
25024;DHT22;13033;50.936;5.334;2023-02-11T01:49:50;7.00;96.00
25024;DHT22;13033;50.936;5.334;2023-02-11T01:52:35;7.00;95.80
25024;DHT22;13033;50.936;5.334;2023-02-11T01:55:05;7.20;96.10
25024;DHT22;13033;50.936;5.334;2023-02-11T01:57:53;7.00;96.20
25024;DHT22;13033;50.936;5.334;2023-02-11T02:00:24;7.00;97.50
25024;DHT22;13033;50.936;5.334;2023-02-11T02:03:07;7.10;96.60
25024;DHT22;13033;50.936;5.334;2023-02-11T02:06:06;7.30;95.00
25024;DHT22;13033;50.936;5.334;2023-02-11T02:11:36;7.40;92.00
25024;DHT22;13033;50.936;5.334;2023-02-11T02:14:02;7.50;90.20
25024;DHT22;13033;50.936;5.334;2023-02-11T02:16:34;7.30;91.60
25024;DHT22;13033;50.936;5.334;2023-02-11T02:24:58;7.30;92.90
25024;DHT22;13033;50.936;5.334;2023-02-11T02:38:19;7.40;93.50
25024;DHT22;13033;50.936;5.334;2023-02-11T02:40:58;7.40;92.50
25024;DHT22;13033;50.936;5.334;2023-02-11T02:43:26;7.40;92.20
25024;DHT22;13033;50.936;5.334;2023-02-11T02:45:53;7.50;91.30
25024;DHT22;13033;50.936;5.334;2023-02-11T02:48:31;7.50;90.80
25024;DHT22;13033;50.936;5.334;2023-02-11T02:52:00;7.40;91.10
25024;DHT22;13033;50.936;5.334;2023-02-11T02:57:15;7.20;92.80
25024;DHT22;13033;50.936;5.334;2023-02-11T02:59:47;7.20;94.80
25024;DHT22;13033;50.936;5.334;2023-02-11T03:02:34;7.30;94.30
25024;DHT22;13033;50.936;5.334;2023-02-11T03:08:44;7.30;93.40
25024;DHT22;13033;50.936;5.334;2023-02-11T03:10:49;7.30;93.40
25024;DHT22;13033;50.936;5.334;2023-02-11T03:13:19;7.30;94.30
25024;DHT22;13033;50.936;5.334;2023-02-11T03:15:49;7.30;93.60
25024;DHT22;13033;50.936;5.334;2023-02-11T03:18:18;7.40;94.30
25024;DHT22;13033;50.936;5.334;2023-02-11T03:20:50;7.40;93.60
25024;DHT22;13033;50.936;5.334;2023-02-11T03:26:07;7.50;92.50
25024;DHT22;13033;50.936;5.334;2023-02-11T03:28:56;7.30;93.50
25024;DHT22;13033;50.936;5.334;2023-02-11T03:34:31;7.40;94.30
25024;DHT22;13033;50.936;5.334;2023-02-11T03:37:05;7.40;93.70
25024;DHT22;13033;50.936;5.334;2023-02-11T03:39:45;7.40;92.70
25024;DHT22;13033;50.936;5.334;2023-02-11T03:42:13;7.40;93.80
25024;DHT22;13033;50.936;5.334;2023-02-11T03:44:47;7.30;94.50
25024;DHT22;13033;50.936;5.334;2023-02-11T03:47:17;7.60;93.20
25024;DHT22;13033;50.936;5.334;2023-02-11T03:49:46;7.50;92.90
25024;DHT22;13033;50.936;5.334;2023-02-11T03:52:15;7.60;90.90
25024;DHT22;13033;50.936;5.334;2023-02-11T03:54:42;7.50;91.60
25024;DHT22;13033;50.936;5.334;2023-02-11T03:57:10;7.50;92.10
25024;DHT22;13033;50.936;5.334;2023-02-11T03:59:54;7.50;93.80
25024;DHT22;13033;50.936;5.334;2023-02-11T04:02:23;7.40;94.30
25024;DHT22;13033;50.936;5.334;2023-02-11T04:04:50;7.50;95.10
25024;DHT22;13033;50.936;5.334;2023-02-11T04:07:16;7.50;93.20
25024;DHT22;13033;50.936;5.334;2023-02-11T04:09:41;7.60;93.20
25024;DHT22;13033;50.936;5.334;2023-02-11T04:12:07;7.60;92.50
25024;DHT22;13033;50.936;5.334;2023-02-11T04:14:33;7.60;92.20
25024;DHT22;13033;50.936;5.334;2023-02-11T04:16:59;7.50;93.30
25024;DHT22;13033;50.936;5.334;2023-02-11T04:19:24;7.50;95.40
25024;DHT22;13033;50.936;5.334;2023-02-11T04:21:50;7.50;94.70
25024;DHT22;13033;50.936;5.334;2023-02-11T04:24:15;7.50;94.60
25024;DHT22;13033;50.936;5.334;2023-02-11T04:26:41;7.50;95.10
25024;DHT22;13033;50.936;5.334;2023-02-11T04:29:07;7.50;95.20
25024;DHT22;13033;50.936;5.334;2023-02-11T04:31:32;7.40;96.50
25024;DHT22;13033;50.936;5.334;2023-02-11T04:33:58;7.40;97.70
25024;DHT22;13033;50.936;5.334;2023-02-11T04:36:24;7.40;98.00
25024;DHT22;13033;50.936;5.334;2023-02-11T04:38:49;7.50;97.30
25024;DHT22;13033;50.936;5.334;2023-02-11T04:41:15;7.50;97.20
25024;DHT22;13033;50.936;5.334;2023-02-11T04:43:40;7.40;98.80
25024;DHT22;13033;50.936;5.334;2023-02-11T04:46:06;7.50;98.30
25024;DHT22;13033;50.936;5.334;2023-02-11T04:48:32;7.40;98.90
25024;DHT22;13033;50.936;5.334;2023-02-11T04:50:59;7.40;99.20
25024;DHT22;13033;50.936;5.334;2023-02-11T04:53:25;7.30;99.80
25024;DHT22;13033;50.936;5.334;2023-02-11T04:55:51;7.30;99.90
25024;DHT22;13033;50.936;5.334;2023-02-11T04:58:17;7.30;99.90
25024;DHT22;13033;50.936;5.334;2023-02-11T05:00:43;7.30;99.90
25024;DHT22;13033;50.936;5.334;2023-02-11T05:03:09;7.30;99.90
25024;DHT22;13033;50.936;5.334;2023-02-11T05:05:38;7.30;99.90
25024;DHT22;13033;50.936;5.334;2023-02-11T05:08:05;7.40;99.90
25024;DHT22;13033;50.936;5.334;2023-02-11T05:10:31;7.40;99.90
25024;DHT22;13033;50.936;5.334;2023-02-11T05:12:56;7.50;99.90
25024;DHT22;13033;50.936;5.334;2023-02-11T05:15:22;7.50;99.90
25024;DHT22;13033;50.936;5.334;2023-02-11T05:17:48;7.60;99.80
25024;DHT22;13033;50.936;5.334;2023-02-11T05:20:13;7.60;98.90
25024;DHT22;13033;50.936;5.334;2023-02-11T05:22:39;7.50;99.90
25024;DHT22;13033;50.936;5.334;2023-02-11T05:25:05;7.40;99.90
25024;DHT22;13033;50.936;5.334;2023-02-11T05:27:30;7.40;99.90
25024;DHT22;13033;50.936;5.334;2023-02-11T05:29:56;7.50;99.90
25024;DHT22;13033;50.936;5.334;2023-02-11T05:32:22;7.60;99.90
25024;DHT22;13033;50.936;5.334;2023-02-11T05:34:47;7.60;99.90
25024;DHT22;13033;50.936;5.334;2023-02-11T05:37:13;7.50;99.90
25024;DHT22;13033;50.936;5.334;2023-02-11T05:39:39;7.40;99.90
25024;DHT22;13033;50.936;5.334;2023-02-11T05:42:05;7.30;99.90
25024;DHT22;13033;50.936;5.334;2023-02-11T05:44:30;7.40;99.90
25024;DHT22;13033;50.936;5.334;2023-02-11T05:46:56;7.40;99.90
25024;DHT22;13033;50.936;5.334;2023-02-11T05:49:22;7.50;99.90
25024;DHT22;13033;50.936;5.334;2023-02-11T05:51:47;7.50;99.90
25024;DHT22;13033;50.936;5.334;2023-02-11T05:54:13;7.50;99.90
25024;DHT22;13033;50.936;5.334;2023-02-11T05:56:39;7.60;99.90
25024;DHT22;13033;50.936;5.334;2023-02-11T05:59:04;7.60;99.90
25024;DHT22;13033;50.936;5.334;2023-02-11T06:01:30;7.60;99.90
25024;DHT22;13033;50.936;5.334;2023-02-11T06:03:56;7.60;99.90
25024;DHT22;13033;50.936;5.334;2023-02-11T06:06:21;7.50;99.90
25024;DHT22;13033;50.936;5.334;2023-02-11T06:08:47;7.50;99.90
25024;DHT22;13033;50.936;5.334;2023-02-11T06:11:16;7.40;99.90
25024;DHT22;13033;50.936;5.334;2023-02-11T06:13:42;7.30;99.90
25024;DHT22;13033;50.936;5.334;2023-02-11T06:16:08;7.20;99.90
25024;DHT22;13033;50.936;5.334;2023-02-11T06:18:34;7.30;99.90
25024;DHT22;13033;50.936;5.334;2023-02-11T06:21:00;7.20;99.90
25024;DHT22;13033;50.936;5.334;2023-02-11T06:23:26;7.20;99.90
25024;DHT22;13033;50.936;5.334;2023-02-11T06:25:52;7.20;99.90
25024;DHT22;13033;50.936;5.334;2023-02-11T06:28:18;7.40;99.90
25024;DHT22;13033;50.936;5.334;2023-02-11T06:30:44;7.50;99.90
25024;DHT22;13033;50.936;5.334;2023-02-11T06:33:09;7.50;99.90
25024;DHT22;13033;50.936;5.334;2023-02-11T06:35:37;7.40;99.90
25024;DHT22;13033;50.936;5.334;2023-02-11T06:38:03;7.40;99.90
25024;DHT22;13033;50.936;5.334;2023-02-11T06:40:29;7.50;99.90
25024;DHT22;13033;50.936;5.334;2023-02-11T06:42:54;7.50;99.90
25024;DHT22;13033;50.936;5.334;2023-02-11T06:45:20;7.50;99.90
25024;DHT22;13033;50.936;5.334;2023-02-11T06:47:46;7.40;99.90
25024;DHT22;13033;50.936;5.334;2023-02-11T06:50:13;7.50;99.90
25024;DHT22;13033;50.936;5.334;2023-02-11T06:52:39;7.60;99.90
25024;DHT22;13033;50.936;5.334;2023-02-11T06:55:05;7.50;99.90
25024;DHT22;13033;50.936;5.334;2023-02-11T06:57:31;7.50;99.90
25024;DHT22;13033;50.936;5.334;2023-02-11T06:59:57;7.50;99.90
25024;DHT22;13033;50.936;5.334;2023-02-11T07:02:22;7.50;99.90
25024;DHT22;13033;50.936;5.334;2023-02-11T07:04:48;7.60;99.90
25024;DHT22;13033;50.936;5.334;2023-02-11T07:07:14;7.60;99.90
25024;DHT22;13033;50.936;5.334;2023-02-11T07:09:40;7.70;99.90
25024;DHT22;13033;50.936;5.334;2023-02-11T07:12:08;7.70;99.90
25024;DHT22;13033;50.936;5.334;2023-02-11T07:14:33;7.80;99.90
25024;DHT22;13033;50.936;5.334;2023-02-11T07:16:59;7.70;99.90
25024;DHT22;13033;50.936;5.334;2023-02-11T07:19:25;7.90;99.90
25024;DHT22;13033;50.936;5.334;2023-02-11T07:21:50;7.90;99.90
25024;DHT22;13033;50.936;5.334;2023-02-11T07:24:16;7.90;99.90
25024;DHT22;13033;50.936;5.334;2023-02-11T07:26:41;7.90;99.90
25024;DHT22;13033;50.936;5.334;2023-02-11T07:29:07;7.90;99.90
25024;DHT22;13033;50.936;5.334;2023-02-11T07:31:33;7.80;99.90
25024;DHT22;13033;50.936;5.334;2023-02-11T07:34:00;7.70;99.90
25024;DHT22;13033;50.936;5.334;2023-02-11T07:36:28;7.50;99.90
25024;DHT22;13033;50.936;5.334;2023-02-11T07:38:53;7.50;99.90
25024;DHT22;13033;50.936;5.334;2023-02-11T07:41:21;7.60;99.90
25024;DHT22;13033;50.936;5.334;2023-02-11T07:43:47;7.60;99.90
25024;DHT22;13033;50.936;5.334;2023-02-11T07:46:19;7.70;99.90
25024;DHT22;13033;50.936;5.334;2023-02-11T07:48:45;7.70;99.90
25024;DHT22;13033;50.936;5.334;2023-02-11T07:51:13;7.80;99.90
25024;DHT22;13033;50.936;5.334;2023-02-11T07:53:39;7.90;99.90
25024;DHT22;13033;50.936;5.334;2023-02-11T07:56:06;8.00;99.90
25024;DHT22;13033;50.936;5.334;2023-02-11T07:58:33;8.00;99.90
25024;DHT22;13033;50.936;5.334;2023-02-11T08:01:11;8.00;99.90
25024;DHT22;13033;50.936;5.334;2023-02-11T08:03:37;8.10;99.90
25024;DHT22;13033;50.936;5.334;2023-02-11T08:06:08;8.10;99.90
25024;DHT22;13033;50.936;5.334;2023-02-11T08:08:34;8.00;99.90
25024;DHT22;13033;50.936;5.334;2023-02-11T08:13:36;7.90;99.90
25024;DHT22;13033;50.936;5.334;2023-02-11T08:16:03;8.10;99.90
25024;DHT22;13033;50.936;5.334;2023-02-11T08:18:30;8.10;99.90
25024;DHT22;13033;50.936;5.334;2023-02-11T08:20:56;8.00;99.90
25024;DHT22;13033;50.936;5.334;2023-02-11T08:23:21;8.10;99.90
25024;DHT22;13033;50.936;5.334;2023-02-11T08:25:47;8.10;99.90
25024;DHT22;13033;50.936;5.334;2023-02-11T08:28:13;8.20;99.90
25024;DHT22;13033;50.936;5.334;2023-02-11T08:30:38;8.20;99.90
25024;DHT22;13033;50.936;5.334;2023-02-11T08:33:04;8.00;99.90
25024;DHT22;13033;50.936;5.334;2023-02-11T08:35:29;7.80;99.90
25024;DHT22;13033;50.936;5.334;2023-02-11T08:37:55;7.80;99.90
25024;DHT22;13033;50.936;5.334;2023-02-11T08:40:21;7.80;99.90
25024;DHT22;13033;50.936;5.334;2023-02-11T08:42:52;7.90;99.90
25024;DHT22;13033;50.936;5.334;2023-02-11T08:45:17;7.90;99.90
25024;DHT22;13033;50.936;5.334;2023-02-11T08:47:43;8.00;99.90
25024;DHT22;13033;50.936;5.334;2023-02-11T08:50:09;8.10;99.90
25024;DHT22;13033;50.936;5.334;2023-02-11T08:52:35;8.20;99.90
25024;DHT22;13033;50.936;5.334;2023-02-11T08:55:01;8.30;99.90
25024;DHT22;13033;50.936;5.334;2023-02-11T08:57:26;8.40;99.90
25024;DHT22;13033;50.936;5.334;2023-02-11T08:59:52;8.40;99.90
25024;DHT22;13033;50.936;5.334;2023-02-11T09:02:18;8.40;99.90
25024;DHT22;13033;50.936;5.334;2023-02-11T09:04:43;8.40;99.90
25024;DHT22;13033;50.936;5.334;2023-02-11T09:07:09;8.40;99.90
25024;DHT22;13033;50.936;5.334;2023-02-11T09:09:35;8.40;99.90
25024;DHT22;13033;50.936;5.334;2023-02-11T09:12:00;8.40;99.90
25024;DHT22;13033;50.936;5.334;2023-02-11T09:14:26;8.50;99.90
25024;DHT22;13033;50.936;5.334;2023-02-11T09:16:52;8.40;99.90
25024;DHT22;13033;50.936;5.334;2023-02-11T09:19:18;8.30;99.90
25024;DHT22;13033;50.936;5.334;2023-02-11T09:21:44;8.40;99.90
25024;DHT22;13033;50.936;5.334;2023-02-11T09:24:10;8.40;99.90
25024;DHT22;13033;50.936;5.334;2023-02-11T09:26:36;8.40;99.90
25024;DHT22;13033;50.936;5.334;2023-02-11T09:29:04;8.30;99.90
25024;DHT22;13033;50.936;5.334;2023-02-11T09:31:31;8.10;99.90
25024;DHT22;13033;50.936;5.334;2023-02-11T09:34:00;8.00;99.90
25024;DHT22;13033;50.936;5.334;2023-02-11T09:36:28;8.10;99.90
25024;DHT22;13033;50.936;5.334;2023-02-11T09:38:55;8.10;99.90
25024;DHT22;13033;50.936;5.334;2023-02-11T09:43:49;8.20;99.90
25024;DHT22;13033;50.936;5.334;2023-02-11T09:46:16;8.20;99.90
25024;DHT22;13033;50.936;5.334;2023-02-11T09:48:47;8.30;99.90
25024;DHT22;13033;50.936;5.334;2023-02-11T09:53:58;8.50;99.90
25024;DHT22;13033;50.936;5.334;2023-02-11T09:56:25;8.50;99.90
25024;DHT22;13033;50.936;5.334;2023-02-11T09:58:52;8.50;99.90
25024;DHT22;13033;50.936;5.334;2023-02-11T10:01:30;8.60;99.90
25024;DHT22;13033;50.936;5.334;2023-02-11T10:15:22;8.80;99.90
25024;DHT22;13033;50.936;5.334;2023-02-11T10:23:32;8.70;99.90
25024;DHT22;13033;50.936;5.334;2023-02-11T10:25:58;8.60;99.90
25024;DHT22;13033;50.936;5.334;2023-02-11T10:28:35;8.60;99.90
25024;DHT22;13033;50.936;5.334;2023-02-11T10:36:23;8.80;99.90
25024;DHT22;13033;50.936;5.334;2023-02-11T10:38:49;8.80;99.90
25024;DHT22;13033;50.936;5.334;2023-02-11T10:41:19;8.80;99.90
25024;DHT22;13033;50.936;5.334;2023-02-11T10:43:45;8.90;99.90
25024;DHT22;13033;50.936;5.334;2023-02-11T10:46:16;8.80;99.90
25024;DHT22;13033;50.936;5.334;2023-02-11T10:48:50;8.80;99.90
25024;DHT22;13033;50.936;5.334;2023-02-11T10:51:28;8.90;99.90
25024;DHT22;13033;50.936;5.334;2023-02-11T10:56:43;9.00;99.90
25024;DHT22;13033;50.936;5.334;2023-02-11T10:59:28;9.10;99.90
25024;DHT22;13033;50.936;5.334;2023-02-11T11:02:00;9.00;99.90
25024;DHT22;13033;50.936;5.334;2023-02-11T11:09:49;9.20;99.90
25024;DHT22;13033;50.936;5.334;2023-02-11T11:14:58;9.30;99.90
25024;DHT22;13033;50.936;5.334;2023-02-11T11:17:24;9.30;99.20
25024;DHT22;13033;50.936;5.334;2023-02-11T11:22:39;9.10;99.90
25024;DHT22;13033;50.936;5.334;2023-02-11T11:25:23;9.30;99.90
25024;DHT22;13033;50.936;5.334;2023-02-11T11:27:51;9.40;99.90
25024;DHT22;13033;50.936;5.334;2023-02-11T11:30:18;9.40;99.60
25024;DHT22;13033;50.936;5.334;2023-02-11T11:32:45;9.60;97.50
25024;DHT22;13033;50.936;5.334;2023-02-11T11:35:26;9.60;96.20
25024;DHT22;13033;50.936;5.334;2023-02-11T11:37:54;9.60;95.90
25024;DHT22;13033;50.936;5.334;2023-02-11T11:40:28;9.60;95.60
25024;DHT22;13033;50.936;5.334;2023-02-11T11:45:36;9.50;95.70
25024;DHT22;13033;50.936;5.334;2023-02-11T11:48:11;9.50;96.70
25024;DHT22;13033;50.936;5.334;2023-02-11T11:58:32;9.40;99.80
25024;DHT22;13033;50.936;5.334;2023-02-11T12:15:01;9.30;99.90
25024;DHT22;13033;50.936;5.334;2023-02-11T12:20:48;9.30;99.90
25024;DHT22;13033;50.936;5.334;2023-02-11T12:29:21;9.40;99.90
25024;DHT22;13033;50.936;5.334;2023-02-11T12:32:20;9.50;99.90
25024;DHT22;13033;50.936;5.334;2023-02-11T12:48:32;9.40;99.90
25024;DHT22;13033;50.936;5.334;2023-02-11T12:51:38;9.50;99.90
25024;DHT22;13033;50.936;5.334;2023-02-11T12:54:21;9.50;99.90
25024;DHT22;13033;50.936;5.334;2023-02-11T12:57:06;9.60;99.90
25024;DHT22;13033;50.936;5.334;2023-02-11T13:02:29;9.60;99.90
25024;DHT22;13033;50.936;5.334;2023-02-11T13:05:11;9.60;99.90
25024;DHT22;13033;50.936;5.334;2023-02-11T13:07:44;9.70;99.90
25024;DHT22;13033;50.936;5.334;2023-02-11T13:12:47;9.70;98.10
25024;DHT22;13033;50.936;5.334;2023-02-11T13:15:33;9.70;97.90
25024;DHT22;13033;50.936;5.334;2023-02-11T13:20:54;9.80;98.40
25024;DHT22;13033;50.936;5.334;2023-02-11T13:23:36;9.80;97.90
25024;DHT22;13033;50.936;5.334;2023-02-11T13:26:20;9.80;97.30
25024;DHT22;13033;50.936;5.334;2023-02-11T13:32:10;9.80;97.00
25024;DHT22;13033;50.936;5.334;2023-02-11T13:37:21;9.60;98.60
25024;DHT22;13033;50.936;5.334;2023-02-11T13:40:03;9.50;99.90
25024;DHT22;13033;50.936;5.334;2023-02-11T13:42:31;9.50;99.90
25024;DHT22;13033;50.936;5.334;2023-02-11T13:44:57;9.60;99.90
25024;DHT22;13033;50.936;5.334;2023-02-11T13:47:31;9.60;99.90
25024;DHT22;13033;50.936;5.334;2023-02-11T13:49:59;9.70;99.90
25024;DHT22;13033;50.936;5.334;2023-02-11T13:52:34;9.80;99.40
25024;DHT22;13033;50.936;5.334;2023-02-11T13:55:19;9.90;97.30
25024;DHT22;13033;50.936;5.334;2023-02-11T14:14:16;9.90;98.40
25024;DHT22;13033;50.936;5.334;2023-02-11T14:19:33;10.00;97.10
25024;DHT22;13033;50.936;5.334;2023-02-11T14:22:46;10.20;96.30
25024;DHT22;13033;50.936;5.334;2023-02-11T14:25:04;10.00;95.90
25024;DHT22;13033;50.936;5.334;2023-02-11T14:30:52;10.00;97.00
25024;DHT22;13033;50.936;5.334;2023-02-11T14:36:07;10.20;95.00
25024;DHT22;13033;50.936;5.334;2023-02-11T14:38:59;10.00;96.10
25024;DHT22;13033;50.936;5.334;2023-02-11T14:41:30;10.00;97.90
25024;DHT22;13033;50.936;5.334;2023-02-11T14:44:05;10.00;97.50
25024;DHT22;13033;50.936;5.334;2023-02-11T14:46:35;10.00;97.80
25024;DHT22;13033;50.936;5.334;2023-02-11T14:49:02;10.10;97.60
25024;DHT22;13033;50.936;5.334;2023-02-11T14:51:30;10.30;95.10
25024;DHT22;13033;50.936;5.334;2023-02-11T14:54:11;10.10;95.20
25024;DHT22;13033;50.936;5.334;2023-02-11T14:56:39;10.10;97.10
25024;DHT22;13033;50.936;5.334;2023-02-11T14:59:20;10.30;95.50
25024;DHT22;13033;50.936;5.334;2023-02-11T15:01:50;10.20;96.40
25024;DHT22;13033;50.936;5.334;2023-02-11T15:04:27;10.20;96.60
25024;DHT22;13033;50.936;5.334;2023-02-11T15:06:54;10.30;95.80
25024;DHT22;13033;50.936;5.334;2023-02-11T15:09:43;10.20;94.30
25024;DHT22;13033;50.936;5.334;2023-02-11T15:12:24;10.30;93.40
25024;DHT22;13033;50.936;5.334;2023-02-11T15:14:58;10.00;96.30
25024;DHT22;13033;50.936;5.334;2023-02-11T15:17:27;9.90;98.60
25024;DHT22;13033;50.936;5.334;2023-02-11T15:19:57;10.10;98.60
25024;DHT22;13033;50.936;5.334;2023-02-11T15:22:29;10.20;97.20
25024;DHT22;13033;50.936;5.334;2023-02-11T15:25:07;10.20;96.70
25024;DHT22;13033;50.936;5.334;2023-02-11T15:27:42;10.50;93.10
25024;DHT22;13033;50.936;5.334;2023-02-11T15:32:51;10.20;95.50
25024;DHT22;13033;50.936;5.334;2023-02-11T15:35:22;10.20;96.50
25024;DHT22;13033;50.936;5.334;2023-02-11T15:37:48;10.50;92.40
25024;DHT22;13033;50.936;5.334;2023-02-11T15:40:29;10.30;93.30
25024;DHT22;13033;50.936;5.334;2023-02-11T15:43:09;10.30;94.10
25024;DHT22;13033;50.936;5.334;2023-02-11T15:45:43;10.30;93.50
25024;DHT22;13033;50.936;5.334;2023-02-11T15:48:20;10.20;94.90
25024;DHT22;13033;50.936;5.334;2023-02-11T15:50:55;10.10;95.60
25024;DHT22;13033;50.936;5.334;2023-02-11T15:53:28;10.20;95.70
25024;DHT22;13033;50.936;5.334;2023-02-11T15:56:07;10.20;95.30
25024;DHT22;13033;50.936;5.334;2023-02-11T15:58:38;10.30;95.10
25024;DHT22;13033;50.936;5.334;2023-02-11T16:01:05;10.40;93.40
25024;DHT22;13033;50.936;5.334;2023-02-11T16:03:31;10.30;94.60
25024;DHT22;13033;50.936;5.334;2023-02-11T16:06:18;10.40;93.40
25024;DHT22;13033;50.936;5.334;2023-02-11T16:11:32;10.30;94.10
25024;DHT22;13033;50.936;5.334;2023-02-11T16:13:59;10.30;94.20
25024;DHT22;13033;50.936;5.334;2023-02-11T16:16:31;10.20;94.50
25024;DHT22;13033;50.936;5.334;2023-02-11T16:19:02;10.00;96.70
25024;DHT22;13033;50.936;5.334;2023-02-11T16:21:32;10.30;94.80
25024;DHT22;13033;50.936;5.334;2023-02-11T16:24:05;10.30;94.70
25024;DHT22;13033;50.936;5.334;2023-02-11T16:26:35;10.50;92.40
25024;DHT22;13033;50.936;5.334;2023-02-11T16:29:06;10.50;91.10
25024;DHT22;13033;50.936;5.334;2023-02-11T16:31:36;10.30;91.60
25024;DHT22;13033;50.936;5.334;2023-02-11T16:34:18;10.10;94.20
25024;DHT22;13033;50.936;5.334;2023-02-11T16:36:45;10.00;96.60
25024;DHT22;13033;50.936;5.334;2023-02-11T16:39:11;10.00;97.10
25024;DHT22;13033;50.936;5.334;2023-02-11T16:41:37;9.90;96.50
25024;DHT22;13033;50.936;5.334;2023-02-11T16:44:03;9.90;97.90
25024;DHT22;13033;50.936;5.334;2023-02-11T16:46:30;9.90;98.70
25024;DHT22;13033;50.936;5.334;2023-02-11T16:48:56;9.80;99.40
25024;DHT22;13033;50.936;5.334;2023-02-11T16:51:23;9.90;99.90
25024;DHT22;13033;50.936;5.334;2023-02-11T16:53:49;9.80;99.90
25024;DHT22;13033;50.936;5.334;2023-02-11T16:56:16;9.90;99.90
25024;DHT22;13033;50.936;5.334;2023-02-11T16:58:43;9.90;99.40
25024;DHT22;13033;50.936;5.334;2023-02-11T17:01:09;9.90;98.80
25024;DHT22;13033;50.936;5.334;2023-02-11T17:03:37;9.90;98.50
25024;DHT22;13033;50.936;5.334;2023-02-11T17:06:09;9.80;99.70
25024;DHT22;13033;50.936;5.334;2023-02-11T17:08:35;9.80;99.90
25024;DHT22;13033;50.936;5.334;2023-02-11T17:11:02;9.70;99.90
25024;DHT22;13033;50.936;5.334;2023-02-11T17:13:28;9.70;99.90
25024;DHT22;13033;50.936;5.334;2023-02-11T17:15:53;9.70;99.90
25024;DHT22;13033;50.936;5.334;2023-02-11T17:18:19;9.80;99.90
25024;DHT22;13033;50.936;5.334;2023-02-11T17:20:45;9.60;99.90
25024;DHT22;13033;50.936;5.334;2023-02-11T17:23:10;9.70;99.90
25024;DHT22;13033;50.936;5.334;2023-02-11T17:25:36;9.60;99.90
25024;DHT22;13033;50.936;5.334;2023-02-11T17:28:07;9.80;99.90
25024;DHT22;13033;50.936;5.334;2023-02-11T17:30:33;9.80;99.90
25024;DHT22;13033;50.936;5.334;2023-02-11T17:32:59;9.90;99.90
25024;DHT22;13033;50.936;5.334;2023-02-11T17:35:25;9.80;99.80
25024;DHT22;13033;50.936;5.334;2023-02-11T17:37:50;9.70;99.90
25024;DHT22;13033;50.936;5.334;2023-02-11T17:40:16;9.50;99.90
25024;DHT22;13033;50.936;5.334;2023-02-11T17:42:42;9.70;99.90
25024;DHT22;13033;50.936;5.334;2023-02-11T17:45:08;9.70;99.90
25024;DHT22;13033;50.936;5.334;2023-02-11T17:47:34;9.70;99.90
25024;DHT22;13033;50.936;5.334;2023-02-11T17:50:00;9.60;99.90
25024;DHT22;13033;50.936;5.334;2023-02-11T17:52:27;9.60;99.90
25024;DHT22;13033;50.936;5.334;2023-02-11T17:54:53;9.80;99.90
25024;DHT22;13033;50.936;5.334;2023-02-11T17:57:19;9.80;99.90
25024;DHT22;13033;50.936;5.334;2023-02-11T17:59:45;9.60;99.90
25024;DHT22;13033;50.936;5.334;2023-02-11T18:02:11;9.60;99.90
25024;DHT22;13033;50.936;5.334;2023-02-11T18:04:38;9.60;99.90
25024;DHT22;13033;50.936;5.334;2023-02-11T18:07:04;9.60;99.90
25024;DHT22;13033;50.936;5.334;2023-02-11T18:09:30;9.60;99.90
25024;DHT22;13033;50.936;5.334;2023-02-11T18:11:55;9.60;99.90
25024;DHT22;13033;50.936;5.334;2023-02-11T18:14:22;9.70;99.90
25024;DHT22;13033;50.936;5.334;2023-02-11T18:16:50;9.80;99.90
25024;DHT22;13033;50.936;5.334;2023-02-11T18:19:16;9.80;99.90
25024;DHT22;13033;50.936;5.334;2023-02-11T18:21:42;9.60;99.90
25024;DHT22;13033;50.936;5.334;2023-02-11T18:24:07;9.60;99.90
25024;DHT22;13033;50.936;5.334;2023-02-11T18:26:34;9.70;99.90
25024;DHT22;13033;50.936;5.334;2023-02-11T18:29:00;9.70;99.90
25024;DHT22;13033;50.936;5.334;2023-02-11T18:31:25;9.70;99.90
25024;DHT22;13033;50.936;5.334;2023-02-11T18:33:51;9.70;99.90
25024;DHT22;13033;50.936;5.334;2023-02-11T18:36:18;9.80;99.90
25024;DHT22;13033;50.936;5.334;2023-02-11T18:38:45;9.60;99.90
25024;DHT22;13033;50.936;5.334;2023-02-11T18:41:11;9.90;99.70
25024;DHT22;13033;50.936;5.334;2023-02-11T18:43:37;9.70;99.90
25024;DHT22;13033;50.936;5.334;2023-02-11T18:46:09;9.60;99.90